sensor_id;sensor_type;location;lat;lon;timestamp;P1;durP1;ratioP1;P2;durP2;ratioP2
52368;SDS011;38298;50.346;3.526;2022-12-15T00:00:11;55.92;;;23.30;;
52368;SDS011;38298;50.346;3.526;2022-12-15T00:02:56;53.13;;;22.98;;
52368;SDS011;38298;50.346;3.526;2022-12-15T00:05:40;58.10;;;23.75;;
52368;SDS011;38298;50.346;3.526;2022-12-15T00:08:25;55.08;;;23.48;;
52368;SDS011;38298;50.346;3.526;2022-12-15T00:11:10;59.90;;;23.23;;
52368;SDS011;38298;50.346;3.526;2022-12-15T00:13:54;58.72;;;22.13;;
52368;SDS011;38298;50.346;3.526;2022-12-15T00:16:39;62.38;;;23.48;;
52368;SDS011;38298;50.346;3.526;2022-12-15T00:19:23;57.25;;;23.98;;
52368;SDS011;38298;50.346;3.526;2022-12-15T00:22:08;62.10;;;24.42;;
52368;SDS011;38298;50.346;3.526;2022-12-15T00:24:52;56.33;;;23.42;;
52368;SDS011;38298;50.346;3.526;2022-12-15T00:27:37;59.78;;;24.35;;
52368;SDS011;38298;50.346;3.526;2022-12-15T00:30:22;64.60;;;23.85;;
52368;SDS011;38298;50.346;3.526;2022-12-15T00:33:07;55.50;;;23.73;;
52368;SDS011;38298;50.346;3.526;2022-12-15T00:35:52;66.65;;;22.92;;
52368;SDS011;38298;50.346;3.526;2022-12-15T00:38:37;52.83;;;21.17;;
52368;SDS011;38298;50.346;3.526;2022-12-15T00:41:07;61.72;;;23.80;;
52368;SDS011;38298;50.346;3.526;2022-12-15T00:43:34;63.55;;;23.10;;
52368;SDS011;38298;50.346;3.526;2022-12-15T00:46:00;65.03;;;23.23;;
52368;SDS011;38298;50.346;3.526;2022-12-15T00:48:45;60.83;;;22.77;;
52368;SDS011;38298;50.346;3.526;2022-12-15T00:51:15;57.22;;;23.15;;
52368;SDS011;38298;50.346;3.526;2022-12-15T00:53:41;61.97;;;24.75;;
52368;SDS011;38298;50.346;3.526;2022-12-15T00:56:26;61.00;;;24.08;;
52368;SDS011;38298;50.346;3.526;2022-12-15T00:59:15;73.68;;;24.70;;
52368;SDS011;38298;50.346;3.526;2022-12-15T01:02:00;65.75;;;26.30;;
52368;SDS011;38298;50.346;3.526;2022-12-15T01:04:44;67.43;;;25.95;;
52368;SDS011;38298;50.346;3.526;2022-12-15T01:07:29;67.00;;;24.60;;
52368;SDS011;38298;50.346;3.526;2022-12-15T01:10:13;65.43;;;24.65;;
52368;SDS011;38298;50.346;3.526;2022-12-15T01:12:58;62.38;;;24.75;;
52368;SDS011;38298;50.346;3.526;2022-12-15T01:15:43;66.05;;;24.33;;
52368;SDS011;38298;50.346;3.526;2022-12-15T01:18:27;62.90;;;24.85;;
52368;SDS011;38298;50.346;3.526;2022-12-15T01:21:12;68.40;;;24.17;;
52368;SDS011;38298;50.346;3.526;2022-12-15T01:23:39;59.92;;;24.20;;
52368;SDS011;38298;50.346;3.526;2022-12-15T01:26:06;59.10;;;22.88;;
52368;SDS011;38298;50.346;3.526;2022-12-15T01:28:32;72.78;;;24.83;;
52368;SDS011;38298;50.346;3.526;2022-12-15T01:30:59;64.85;;;23.88;;
52368;SDS011;38298;50.346;3.526;2022-12-15T01:33:25;56.85;;;23.48;;
52368;SDS011;38298;50.346;3.526;2022-12-15T01:35:57;52.22;;;22.83;;
52368;SDS011;38298;50.346;3.526;2022-12-15T01:38:24;61.58;;;24.65;;
52368;SDS011;38298;50.346;3.526;2022-12-15T01:40:51;58.60;;;23.55;;
52368;SDS011;38298;50.346;3.526;2022-12-15T01:43:19;61.63;;;23.75;;
52368;SDS011;38298;50.346;3.526;2022-12-15T01:45:48;63.65;;;23.73;;
52368;SDS011;38298;50.346;3.526;2022-12-15T01:53:25;61.83;;;25.25;;
52368;SDS011;38298;50.346;3.526;2022-12-15T01:55:52;75.15;;;25.88;;
52368;SDS011;38298;50.346;3.526;2022-12-15T01:58:18;75.50;;;26.80;;
52368;SDS011;38298;50.346;3.526;2022-12-15T02:00:44;60.25;;;24.10;;
52368;SDS011;38298;50.346;3.526;2022-12-15T02:03:11;68.53;;;26.17;;
52368;SDS011;38298;50.346;3.526;2022-12-15T02:05:37;63.47;;;26.05;;
52368;SDS011;38298;50.346;3.526;2022-12-15T02:08:04;67.05;;;26.70;;
52368;SDS011;38298;50.346;3.526;2022-12-15T02:10:35;63.50;;;25.10;;
52368;SDS011;38298;50.346;3.526;2022-12-15T02:30:54;68.75;;;25.40;;
52368;SDS011;38298;50.346;3.526;2022-12-15T02:33:44;63.63;;;24.40;;
52368;SDS011;38298;50.346;3.526;2022-12-15T02:36:15;63.55;;;23.88;;
52368;SDS011;38298;50.346;3.526;2022-12-15T02:38:42;59.63;;;24.25;;
52368;SDS011;38298;50.346;3.526;2022-12-15T02:43:54;66.35;;;24.95;;
52368;SDS011;38298;50.346;3.526;2022-12-15T02:46:23;69.22;;;24.85;;
52368;SDS011;38298;50.346;3.526;2022-12-15T02:51:37;69.47;;;25.10;;
52368;SDS011;38298;50.346;3.526;2022-12-15T02:56:59;62.15;;;25.48;;
52368;SDS011;38298;50.346;3.526;2022-12-15T03:01:56;67.28;;;25.27;;
52368;SDS011;38298;50.346;3.526;2022-12-15T03:04:24;80.93;;;27.02;;
52368;SDS011;38298;50.346;3.526;2022-12-15T03:06:54;67.43;;;26.17;;
52368;SDS011;38298;50.346;3.526;2022-12-15T03:09:21;67.43;;;25.20;;
52368;SDS011;38298;50.346;3.526;2022-12-15T03:11:47;57.95;;;23.88;;
52368;SDS011;38298;50.346;3.526;2022-12-15T03:14:13;65.38;;;25.67;;
52368;SDS011;38298;50.346;3.526;2022-12-15T03:16:39;60.05;;;24.65;;
52368;SDS011;38298;50.346;3.526;2022-12-15T03:19:05;63.70;;;24.38;;
52368;SDS011;38298;50.346;3.526;2022-12-15T03:21:31;65.40;;;25.23;;
52368;SDS011;38298;50.346;3.526;2022-12-15T03:23:57;63.80;;;23.58;;
52368;SDS011;38298;50.346;3.526;2022-12-15T03:26:23;61.60;;;24.67;;
52368;SDS011;38298;50.346;3.526;2022-12-15T03:28:49;63.55;;;23.92;;
52368;SDS011;38298;50.346;3.526;2022-12-15T03:31:15;67.70;;;24.17;;
52368;SDS011;38298;50.346;3.526;2022-12-15T03:33:41;65.78;;;23.85;;
52368;SDS011;38298;50.346;3.526;2022-12-15T03:36:07;65.78;;;24.67;;
52368;SDS011;38298;50.346;3.526;2022-12-15T03:38:33;69.72;;;24.33;;
52368;SDS011;38298;50.346;3.526;2022-12-15T03:40:59;57.20;;;22.42;;
52368;SDS011;38298;50.346;3.526;2022-12-15T03:43:25;58.55;;;24.92;;
52368;SDS011;38298;50.346;3.526;2022-12-15T03:45:51;66.40;;;24.80;;
52368;SDS011;38298;50.346;3.526;2022-12-15T03:48:17;64.60;;;24.55;;
52368;SDS011;38298;50.346;3.526;2022-12-15T03:50:43;59.78;;;23.08;;
52368;SDS011;38298;50.346;3.526;2022-12-15T03:53:10;56.42;;;22.42;;
52368;SDS011;38298;50.346;3.526;2022-12-15T03:55:36;63.28;;;24.08;;
52368;SDS011;38298;50.346;3.526;2022-12-15T03:58:02;53.20;;;22.05;;
52368;SDS011;38298;50.346;3.526;2022-12-15T04:00:28;58.33;;;21.83;;
52368;SDS011;38298;50.346;3.526;2022-12-15T04:02:54;57.67;;;22.92;;
52368;SDS011;38298;50.346;3.526;2022-12-15T04:05:21;64.07;;;25.17;;
52368;SDS011;38298;50.346;3.526;2022-12-15T04:07:49;65.60;;;24.67;;
52368;SDS011;38298;50.346;3.526;2022-12-15T04:10:15;53.03;;;22.35;;
52368;SDS011;38298;50.346;3.526;2022-12-15T04:12:41;55.53;;;22.10;;
52368;SDS011;38298;50.346;3.526;2022-12-15T04:15:08;58.60;;;22.23;;
52368;SDS011;38298;50.346;3.526;2022-12-15T04:17:35;58.95;;;21.92;;
52368;SDS011;38298;50.346;3.526;2022-12-15T04:20:01;53.20;;;21.50;;
52368;SDS011;38298;50.346;3.526;2022-12-15T04:22:34;55.70;;;23.25;;
52368;SDS011;38298;50.346;3.526;2022-12-15T04:25:00;58.20;;;21.17;;
52368;SDS011;38298;50.346;3.526;2022-12-15T04:27:44;67.93;;;23.70;;
52368;SDS011;38298;50.346;3.526;2022-12-15T04:30:29;55.95;;;22.25;;
52368;SDS011;38298;50.346;3.526;2022-12-15T04:33:14;60.50;;;23.48;;
52368;SDS011;38298;50.346;3.526;2022-12-15T04:35:59;68.40;;;23.38;;
52368;SDS011;38298;50.346;3.526;2022-12-15T04:38:44;60.17;;;23.85;;
52368;SDS011;38298;50.346;3.526;2022-12-15T04:41:28;57.53;;;23.58;;
52368;SDS011;38298;50.346;3.526;2022-12-15T04:44:14;61.58;;;21.25;;
52368;SDS011;38298;50.346;3.526;2022-12-15T04:46:59;48.40;;;20.55;;
52368;SDS011;38298;50.346;3.526;2022-12-15T04:49:43;58.97;;;22.42;;
52368;SDS011;38298;50.346;3.526;2022-12-15T04:52:28;57.97;;;21.42;;
52368;SDS011;38298;50.346;3.526;2022-12-15T04:55:12;55.30;;;24.27;;
52368;SDS011;38298;50.346;3.526;2022-12-15T04:57:57;56.25;;;21.08;;
52368;SDS011;38298;50.346;3.526;2022-12-15T05:00:42;58.35;;;21.85;;
52368;SDS011;38298;50.346;3.526;2022-12-15T05:03:26;56.58;;;21.65;;
52368;SDS011;38298;50.346;3.526;2022-12-15T05:06:11;61.65;;;22.60;;
52368;SDS011;38298;50.346;3.526;2022-12-15T05:08:56;57.10;;;21.25;;
52368;SDS011;38298;50.346;3.526;2022-12-15T05:11:40;55.85;;;22.40;;
52368;SDS011;38298;50.346;3.526;2022-12-15T05:14:25;54.55;;;20.90;;
52368;SDS011;38298;50.346;3.526;2022-12-15T05:17:09;56.85;;;20.85;;
52368;SDS011;38298;50.346;3.526;2022-12-15T05:19:54;53.47;;;21.75;;
52368;SDS011;38298;50.346;3.526;2022-12-15T05:22:38;116.90;;;37.33;;
52368;SDS011;38298;50.346;3.526;2022-12-15T05:25:23;113.57;;;35.58;;
52368;SDS011;38298;50.346;3.526;2022-12-15T05:28:08;210.40;;;58.67;;
52368;SDS011;38298;50.346;3.526;2022-12-15T05:30:52;197.13;;;50.72;;
52368;SDS011;38298;50.346;3.526;2022-12-15T05:33:37;193.73;;;49.90;;
52368;SDS011;38298;50.346;3.526;2022-12-15T05:36:03;160.48;;;42.90;;
52368;SDS011;38298;50.346;3.526;2022-12-15T05:38:46;138.73;;;39.20;;
52368;SDS011;38298;50.346;3.526;2022-12-15T05:41:12;119.85;;;36.17;;
52368;SDS011;38298;50.346;3.526;2022-12-15T05:43:38;113.25;;;33.80;;
52368;SDS011;38298;50.346;3.526;2022-12-15T05:46:04;88.85;;;29.95;;
52368;SDS011;38298;50.346;3.526;2022-12-15T05:48:30;96.68;;;30.10;;
52368;SDS011;38298;50.346;3.526;2022-12-15T05:50:56;71.20;;;25.98;;
52368;SDS011;38298;50.346;3.526;2022-12-15T05:53:22;62.88;;;24.48;;
52368;SDS011;38298;50.346;3.526;2022-12-15T05:55:48;57.42;;;23.58;;
52368;SDS011;38298;50.346;3.526;2022-12-15T05:58:14;57.28;;;23.60;;
52368;SDS011;38298;50.346;3.526;2022-12-15T06:00:40;57.08;;;22.50;;
52368;SDS011;38298;50.346;3.526;2022-12-15T06:03:09;58.65;;;23.15;;
52368;SDS011;38298;50.346;3.526;2022-12-15T06:05:35;59.63;;;21.83;;
52368;SDS011;38298;50.346;3.526;2022-12-15T06:08:01;52.05;;;21.80;;
52368;SDS011;38298;50.346;3.526;2022-12-15T06:10:27;57.28;;;23.13;;
52368;SDS011;38298;50.346;3.526;2022-12-15T06:12:53;58.58;;;24.48;;
52368;SDS011;38298;50.346;3.526;2022-12-15T06:15:19;55.63;;;21.58;;
52368;SDS011;38298;50.346;3.526;2022-12-15T06:17:45;54.78;;;22.25;;
52368;SDS011;38298;50.346;3.526;2022-12-15T06:20:11;48.22;;;20.38;;
52368;SDS011;38298;50.346;3.526;2022-12-15T06:22:37;50.35;;;21.13;;
52368;SDS011;38298;50.346;3.526;2022-12-15T06:25:03;56.45;;;20.45;;
52368;SDS011;38298;50.346;3.526;2022-12-15T06:27:29;58.28;;;21.90;;
52368;SDS011;38298;50.346;3.526;2022-12-15T06:29:55;52.63;;;20.90;;
52368;SDS011;38298;50.346;3.526;2022-12-15T06:32:21;58.00;;;21.58;;
52368;SDS011;38298;50.346;3.526;2022-12-15T06:34:47;57.65;;;22.20;;
52368;SDS011;38298;50.346;3.526;2022-12-15T06:37:13;55.95;;;23.52;;
52368;SDS011;38298;50.346;3.526;2022-12-15T06:39:39;57.10;;;23.23;;
52368;SDS011;38298;50.346;3.526;2022-12-15T06:42:05;55.13;;;21.55;;
52368;SDS011;38298;50.346;3.526;2022-12-15T06:44:31;54.25;;;21.40;;
52368;SDS011;38298;50.346;3.526;2022-12-15T06:46:57;52.97;;;20.23;;
52368;SDS011;38298;50.346;3.526;2022-12-15T06:49:23;49.90;;;20.55;;
52368;SDS011;38298;50.346;3.526;2022-12-15T06:51:49;51.53;;;19.90;;
52368;SDS011;38298;50.346;3.526;2022-12-15T06:54:15;53.70;;;20.63;;
52368;SDS011;38298;50.346;3.526;2022-12-15T06:56:41;53.28;;;21.55;;
52368;SDS011;38298;50.346;3.526;2022-12-15T06:59:09;68.38;;;24.85;;
52368;SDS011;38298;50.346;3.526;2022-12-15T07:01:35;79.43;;;28.23;;
52368;SDS011;38298;50.346;3.526;2022-12-15T07:04:01;67.95;;;25.05;;
52368;SDS011;38298;50.346;3.526;2022-12-15T07:06:35;69.88;;;24.08;;
52368;SDS011;38298;50.346;3.526;2022-12-15T07:09:02;62.38;;;25.60;;
52368;SDS011;38298;50.346;3.526;2022-12-15T07:11:28;60.25;;;24.17;;
52368;SDS011;38298;50.346;3.526;2022-12-15T07:13:54;62.03;;;24.50;;
52368;SDS011;38298;50.346;3.526;2022-12-15T07:16:21;65.05;;;24.65;;
52368;SDS011;38298;50.346;3.526;2022-12-15T07:18:47;57.53;;;22.38;;
52368;SDS011;38298;50.346;3.526;2022-12-15T07:21:13;58.72;;;23.75;;
52368;SDS011;38298;50.346;3.526;2022-12-15T07:23:39;57.90;;;24.73;;
52368;SDS011;38298;50.346;3.526;2022-12-15T07:26:05;67.90;;;24.77;;
52368;SDS011;38298;50.346;3.526;2022-12-15T07:28:33;57.38;;;23.88;;
52368;SDS011;38298;50.346;3.526;2022-12-15T07:31:00;58.38;;;24.25;;
52368;SDS011;38298;50.346;3.526;2022-12-15T07:33:26;58.67;;;25.25;;
52368;SDS011;38298;50.346;3.526;2022-12-15T07:35:53;60.20;;;24.33;;
52368;SDS011;38298;50.346;3.526;2022-12-15T07:38:19;53.97;;;22.50;;
52368;SDS011;38298;50.346;3.526;2022-12-15T07:40:45;58.92;;;24.65;;
52368;SDS011;38298;50.346;3.526;2022-12-15T07:43:14;62.03;;;25.00;;
52368;SDS011;38298;50.346;3.526;2022-12-15T07:45:40;58.72;;;24.08;;
52368;SDS011;38298;50.346;3.526;2022-12-15T07:48:06;61.60;;;24.55;;
52368;SDS011;38298;50.346;3.526;2022-12-15T07:50:32;65.40;;;25.30;;
52368;SDS011;38298;50.346;3.526;2022-12-15T07:52:58;67.88;;;24.08;;
52368;SDS011;38298;50.346;3.526;2022-12-15T07:55:24;69.80;;;25.90;;
52368;SDS011;38298;50.346;3.526;2022-12-15T07:57:50;68.60;;;24.42;;
52368;SDS011;38298;50.346;3.526;2022-12-15T08:00:16;61.22;;;24.58;;
52368;SDS011;38298;50.346;3.526;2022-12-15T08:02:43;59.40;;;24.65;;
52368;SDS011;38298;50.346;3.526;2022-12-15T08:05:09;68.82;;;28.02;;
52368;SDS011;38298;50.346;3.526;2022-12-15T08:07:35;77.68;;;30.42;;
52368;SDS011;38298;50.346;3.526;2022-12-15T08:10:01;80.47;;;28.30;;
52368;SDS011;38298;50.346;3.526;2022-12-15T08:12:27;70.30;;;29.13;;
52368;SDS011;38298;50.346;3.526;2022-12-15T08:14:53;66.35;;;27.05;;
52368;SDS011;38298;50.346;3.526;2022-12-15T08:17:19;72.03;;;26.75;;
52368;SDS011;38298;50.346;3.526;2022-12-15T08:19:45;70.13;;;26.52;;
52368;SDS011;38298;50.346;3.526;2022-12-15T08:22:15;62.65;;;26.52;;
52368;SDS011;38298;50.346;3.526;2022-12-15T08:24:40;67.13;;;25.60;;
52368;SDS011;38298;50.346;3.526;2022-12-15T08:27:09;65.63;;;27.05;;
52368;SDS011;38298;50.346;3.526;2022-12-15T08:29:35;61.28;;;24.77;;
52368;SDS011;38298;50.346;3.526;2022-12-15T08:32:01;69.28;;;26.20;;
52368;SDS011;38298;50.346;3.526;2022-12-15T08:34:27;59.90;;;25.73;;
52368;SDS011;38298;50.346;3.526;2022-12-15T08:36:53;68.03;;;27.10;;
52368;SDS011;38298;50.346;3.526;2022-12-15T08:39:20;64.53;;;25.92;;
52368;SDS011;38298;50.346;3.526;2022-12-15T08:41:46;69.95;;;28.00;;
52368;SDS011;38298;50.346;3.526;2022-12-15T08:44:12;68.78;;;26.83;;
52368;SDS011;38298;50.346;3.526;2022-12-15T08:46:38;61.80;;;24.52;;
52368;SDS011;38298;50.346;3.526;2022-12-15T08:49:04;64.30;;;26.15;;
52368;SDS011;38298;50.346;3.526;2022-12-15T08:51:31;63.90;;;26.88;;
52368;SDS011;38298;50.346;3.526;2022-12-15T08:53:57;60.30;;;24.73;;
52368;SDS011;38298;50.346;3.526;2022-12-15T08:56:24;68.95;;;25.52;;
52368;SDS011;38298;50.346;3.526;2022-12-15T08:58:58;64.35;;;25.98;;
52368;SDS011;38298;50.346;3.526;2022-12-15T09:01:25;61.55;;;25.38;;
52368;SDS011;38298;50.346;3.526;2022-12-15T09:03:52;63.00;;;24.25;;
52368;SDS011;38298;50.346;3.526;2022-12-15T09:06:19;61.17;;;25.85;;
52368;SDS011;38298;50.346;3.526;2022-12-15T09:08:45;61.03;;;26.13;;
52368;SDS011;38298;50.346;3.526;2022-12-15T09:11:11;59.97;;;24.33;;
52368;SDS011;38298;50.346;3.526;2022-12-15T09:13:37;60.60;;;25.35;;
52368;SDS011;38298;50.346;3.526;2022-12-15T09:16:09;56.17;;;24.50;;
52368;SDS011;38298;50.346;3.526;2022-12-15T09:18:42;60.13;;;24.63;;
52368;SDS011;38298;50.346;3.526;2022-12-15T09:21:09;66.95;;;25.08;;
52368;SDS011;38298;50.346;3.526;2022-12-15T09:23:35;62.78;;;25.60;;
52368;SDS011;38298;50.346;3.526;2022-12-15T09:26:02;67.32;;;25.05;;
52368;SDS011;38298;50.346;3.526;2022-12-15T09:28:28;64.53;;;25.83;;
52368;SDS011;38298;50.346;3.526;2022-12-15T09:31:09;66.18;;;26.33;;
52368;SDS011;38298;50.346;3.526;2022-12-15T09:33:35;63.58;;;24.90;;
52368;SDS011;38298;50.346;3.526;2022-12-15T09:36:02;54.20;;;24.33;;
52368;SDS011;38298;50.346;3.526;2022-12-15T09:38:28;60.35;;;24.55;;
52368;SDS011;38298;50.346;3.526;2022-12-15T09:40:55;58.00;;;24.52;;
52368;SDS011;38298;50.346;3.526;2022-12-15T09:43:22;52.05;;;23.98;;
52368;SDS011;38298;50.346;3.526;2022-12-15T09:45:50;67.80;;;24.88;;
52368;SDS011;38298;50.346;3.526;2022-12-15T09:48:20;64.82;;;25.75;;
52368;SDS011;38298;50.346;3.526;2022-12-15T09:50:48;61.10;;;26.00;;
52368;SDS011;38298;50.346;3.526;2022-12-15T09:53:16;60.70;;;25.48;;
52368;SDS011;38298;50.346;3.526;2022-12-15T09:55:44;62.15;;;27.52;;
52368;SDS011;38298;50.346;3.526;2022-12-15T10:00:47;53.95;;;25.08;;
52368;SDS011;38298;50.346;3.526;2022-12-15T10:06:18;50.67;;;23.80;;
52368;SDS011;38298;50.346;3.526;2022-12-15T10:08:39;61.72;;;24.90;;
52368;SDS011;38298;50.346;3.526;2022-12-15T10:11:19;57.15;;;23.83;;
52368;SDS011;38298;50.346;3.526;2022-12-15T10:16:27;62.47;;;25.63;;
52368;SDS011;38298;50.346;3.526;2022-12-15T10:21:23;56.50;;;25.08;;
52368;SDS011;38298;50.346;3.526;2022-12-15T10:23:51;54.60;;;22.60;;
52368;SDS011;38298;50.346;3.526;2022-12-15T10:26:22;55.72;;;23.13;;
52368;SDS011;38298;50.346;3.526;2022-12-15T10:31:49;53.03;;;23.88;;
52368;SDS011;38298;50.346;3.526;2022-12-15T10:34:23;54.38;;;23.23;;
52368;SDS011;38298;50.346;3.526;2022-12-15T10:36:50;55.63;;;23.38;;
52368;SDS011;38298;50.346;3.526;2022-12-15T10:39:16;55.75;;;21.33;;
52368;SDS011;38298;50.346;3.526;2022-12-15T10:41:42;51.90;;;22.75;;
52368;SDS011;38298;50.346;3.526;2022-12-15T10:44:22;55.67;;;22.83;;
52368;SDS011;38298;50.346;3.526;2022-12-15T10:51:44;60.85;;;20.25;;
52368;SDS011;38298;50.346;3.526;2022-12-15T10:54:13;44.10;;;20.70;;
52368;SDS011;38298;50.346;3.526;2022-12-15T10:59:27;43.80;;;20.05;;
52368;SDS011;38298;50.346;3.526;2022-12-15T11:01:54;56.72;;;21.58;;
52368;SDS011;38298;50.346;3.526;2022-12-15T11:04:24;55.65;;;22.27;;
52368;SDS011;38298;50.346;3.526;2022-12-15T11:06:54;45.05;;;20.05;;
52368;SDS011;38298;50.346;3.526;2022-12-15T11:11:50;45.72;;;20.73;;
52368;SDS011;38298;50.346;3.526;2022-12-15T11:14:42;47.83;;;21.38;;
52368;SDS011;38298;50.346;3.526;2022-12-15T11:17:12;49.58;;;22.05;;
52368;SDS011;38298;50.346;3.526;2022-12-15T11:20:03;50.05;;;22.40;;
52368;SDS011;38298;50.346;3.526;2022-12-15T11:24:53;55.08;;;24.48;;
52368;SDS011;38298;50.346;3.526;2022-12-15T11:27:32;51.50;;;24.33;;
52368;SDS011;38298;50.346;3.526;2022-12-15T11:30:18;53.60;;;24.42;;
52368;SDS011;38298;50.346;3.526;2022-12-15T11:32:51;52.85;;;24.75;;
52368;SDS011;38298;50.346;3.526;2022-12-15T11:35:19;57.75;;;23.88;;
52368;SDS011;38298;50.346;3.526;2022-12-15T11:37:48;57.92;;;24.80;;
52368;SDS011;38298;50.346;3.526;2022-12-15T11:45:33;52.80;;;24.17;;
52368;SDS011;38298;50.346;3.526;2022-12-15T11:48:08;51.45;;;23.15;;
52368;SDS011;38298;50.346;3.526;2022-12-15T12:00:41;39.58;;;18.73;;
52368;SDS011;38298;50.346;3.526;2022-12-15T12:13:39;50.15;;;18.95;;
52368;SDS011;38298;50.346;3.526;2022-12-15T12:18:38;40.92;;;20.77;;
52368;SDS011;38298;50.346;3.526;2022-12-15T12:21:09;50.22;;;20.50;;
52368;SDS011;38298;50.346;3.526;2022-12-15T12:34:05;46.75;;;20.98;;
52368;SDS011;38298;50.346;3.526;2022-12-15T12:36:33;40.45;;;18.25;;
52368;SDS011;38298;50.346;3.526;2022-12-15T12:38:59;35.85;;;17.65;;
52368;SDS011;38298;50.346;3.526;2022-12-15T12:41:37;38.15;;;17.98;;
52368;SDS011;38298;50.346;3.526;2022-12-15T12:44:08;38.53;;;17.15;;
52368;SDS011;38298;50.346;3.526;2022-12-15T12:46:39;38.50;;;16.90;;
52368;SDS011;38298;50.346;3.526;2022-12-15T12:49:07;42.80;;;17.33;;
52368;SDS011;38298;50.346;3.526;2022-12-15T12:51:40;37.40;;;16.35;;
52368;SDS011;38298;50.346;3.526;2022-12-15T12:56:58;37.35;;;15.20;;
52368;SDS011;38298;50.346;3.526;2022-12-15T13:01:57;34.10;;;15.00;;
52368;SDS011;38298;50.346;3.526;2022-12-15T13:04:38;30.95;;;15.65;;
52368;SDS011;38298;50.346;3.526;2022-12-15T13:12:50;26.05;;;12.35;;
52368;SDS011;38298;50.346;3.526;2022-12-15T13:15:21;32.17;;;13.98;;
52368;SDS011;38298;50.346;3.526;2022-12-15T13:17:50;29.42;;;13.07;;
52368;SDS011;38298;50.346;3.526;2022-12-15T13:20:20;31.70;;;13.68;;
52368;SDS011;38298;50.346;3.526;2022-12-15T13:22:46;25.75;;;12.80;;
52368;SDS011;38298;50.346;3.526;2022-12-15T13:27:57;34.35;;;13.13;;
52368;SDS011;38298;50.346;3.526;2022-12-15T13:30:24;29.55;;;14.20;;
52368;SDS011;38298;50.346;3.526;2022-12-15T13:32:51;37.33;;;15.00;;
52368;SDS011;38298;50.346;3.526;2022-12-15T13:38:00;37.80;;;16.02;;
52368;SDS011;38298;50.346;3.526;2022-12-15T13:40:42;38.25;;;15.57;;
52368;SDS011;38298;50.346;3.526;2022-12-15T13:43:36;44.00;;;15.85;;
52368;SDS011;38298;50.346;3.526;2022-12-15T13:46:01;37.30;;;16.45;;
52368;SDS011;38298;50.346;3.526;2022-12-15T13:48:50;31.40;;;13.90;;
52368;SDS011;38298;50.346;3.526;2022-12-15T13:51:31;33.05;;;12.85;;
52368;SDS011;38298;50.346;3.526;2022-12-15T13:56:26;23.60;;;11.45;;
52368;SDS011;38298;50.346;3.526;2022-12-15T13:59:02;25.27;;;11.98;;
52368;SDS011;38298;50.346;3.526;2022-12-15T14:01:30;31.08;;;12.05;;
52368;SDS011;38298;50.346;3.526;2022-12-15T14:04:02;26.67;;;13.13;;
52368;SDS011;38298;50.346;3.526;2022-12-15T14:06:33;32.05;;;14.02;;
52368;SDS011;38298;50.346;3.526;2022-12-15T14:08:59;28.95;;;13.73;;
52368;SDS011;38298;50.346;3.526;2022-12-15T14:11:26;32.72;;;13.65;;
52368;SDS011;38298;50.346;3.526;2022-12-15T14:13:54;30.23;;;15.25;;
52368;SDS011;38298;50.346;3.526;2022-12-15T14:16:23;30.33;;;15.25;;
52368;SDS011;38298;50.346;3.526;2022-12-15T14:19:10;38.92;;;16.38;;
52368;SDS011;38298;50.346;3.526;2022-12-15T14:21:37;34.55;;;15.10;;
52368;SDS011;38298;50.346;3.526;2022-12-15T14:24:14;37.00;;;16.35;;
52368;SDS011;38298;50.346;3.526;2022-12-15T14:26:42;33.97;;;15.18;;
52368;SDS011;38298;50.346;3.526;2022-12-15T14:29:08;36.78;;;15.27;;
52368;SDS011;38298;50.346;3.526;2022-12-15T14:31:35;34.90;;;14.98;;
52368;SDS011;38298;50.346;3.526;2022-12-15T14:34:06;29.35;;;15.05;;
52368;SDS011;38298;50.346;3.526;2022-12-15T14:36:33;31.20;;;14.02;;
52368;SDS011;38298;50.346;3.526;2022-12-15T14:39:01;29.92;;;13.63;;
52368;SDS011;38298;50.346;3.526;2022-12-15T14:41:32;28.35;;;14.13;;
52368;SDS011;38298;50.346;3.526;2022-12-15T14:44:00;26.38;;;13.55;;
52368;SDS011;38298;50.346;3.526;2022-12-15T14:46:27;31.60;;;13.88;;
52368;SDS011;38298;50.346;3.526;2022-12-15T14:48:58;30.45;;;14.00;;
52368;SDS011;38298;50.346;3.526;2022-12-15T14:51:25;26.70;;;11.93;;
52368;SDS011;38298;50.346;3.526;2022-12-15T14:53:52;25.52;;;12.25;;
52368;SDS011;38298;50.346;3.526;2022-12-15T14:58:58;32.03;;;12.40;;
52368;SDS011;38298;50.346;3.526;2022-12-15T15:01:29;28.55;;;12.82;;
52368;SDS011;38298;50.346;3.526;2022-12-15T15:06:58;28.17;;;11.52;;
52368;SDS011;38298;50.346;3.526;2022-12-15T15:09:22;28.90;;;11.82;;
52368;SDS011;38298;50.346;3.526;2022-12-15T15:11:50;25.48;;;11.85;;
52368;SDS011;38298;50.346;3.526;2022-12-15T15:14:20;21.35;;;10.65;;
52368;SDS011;38298;50.346;3.526;2022-12-15T15:17:11;25.65;;;11.98;;
52368;SDS011;38298;50.346;3.526;2022-12-15T15:19:48;27.75;;;12.18;;
52368;SDS011;38298;50.346;3.526;2022-12-15T15:22:34;28.98;;;12.18;;
52368;SDS011;38298;50.346;3.526;2022-12-15T15:25:02;20.73;;;10.82;;
52368;SDS011;38298;50.346;3.526;2022-12-15T15:27:44;23.58;;;11.70;;
52368;SDS011;38298;50.346;3.526;2022-12-15T15:35:35;22.63;;;10.73;;
52368;SDS011;38298;50.346;3.526;2022-12-15T15:38:03;24.27;;;12.48;;
52368;SDS011;38298;50.346;3.526;2022-12-15T15:40:30;25.23;;;10.63;;
52368;SDS011;38298;50.346;3.526;2022-12-15T15:42:56;32.35;;;11.38;;
52368;SDS011;38298;50.346;3.526;2022-12-15T15:45:22;22.65;;;11.95;;
52368;SDS011;38298;50.346;3.526;2022-12-15T15:47:49;32.30;;;12.93;;
52368;SDS011;38298;50.346;3.526;2022-12-15T15:50:16;25.77;;;11.70;;
52368;SDS011;38298;50.346;3.526;2022-12-15T15:52:46;24.55;;;12.07;;
52368;SDS011;38298;50.346;3.526;2022-12-15T15:55:15;27.05;;;11.55;;
52368;SDS011;38298;50.346;3.526;2022-12-15T16:00:19;25.55;;;11.65;;
52368;SDS011;38298;50.346;3.526;2022-12-15T16:02:46;32.83;;;12.43;;
52368;SDS011;38298;50.346;3.526;2022-12-15T16:05:12;26.35;;;11.98;;
52368;SDS011;38298;50.346;3.526;2022-12-15T16:07:38;25.35;;;11.13;;
52368;SDS011;38298;50.346;3.526;2022-12-15T16:10:16;27.42;;;11.70;;
52368;SDS011;38298;50.346;3.526;2022-12-15T16:12:44;25.45;;;11.73;;
52368;SDS011;38298;50.346;3.526;2022-12-15T16:15:18;25.55;;;11.35;;
52368;SDS011;38298;50.346;3.526;2022-12-15T16:17:44;27.38;;;12.02;;
52368;SDS011;38298;50.346;3.526;2022-12-15T16:20:11;31.67;;;13.60;;
52368;SDS011;38298;50.346;3.526;2022-12-15T16:22:38;30.15;;;12.80;;
52368;SDS011;38298;50.346;3.526;2022-12-15T16:25:04;24.63;;;13.00;;
52368;SDS011;38298;50.346;3.526;2022-12-15T16:27:31;28.17;;;11.88;;
52368;SDS011;38298;50.346;3.526;2022-12-15T16:29:56;32.67;;;13.25;;
52368;SDS011;38298;50.346;3.526;2022-12-15T16:32:23;32.67;;;12.02;;
52368;SDS011;38298;50.346;3.526;2022-12-15T16:34:49;31.33;;;13.30;;
52368;SDS011;38298;50.346;3.526;2022-12-15T16:37:25;29.98;;;12.60;;
52368;SDS011;38298;50.346;3.526;2022-12-15T16:39:51;26.05;;;11.93;;
52368;SDS011;38298;50.346;3.526;2022-12-15T16:42:17;25.55;;;12.48;;
52368;SDS011;38298;50.346;3.526;2022-12-15T16:44:43;25.58;;;12.57;;
52368;SDS011;38298;50.346;3.526;2022-12-15T16:47:09;26.15;;;12.27;;
52368;SDS011;38298;50.346;3.526;2022-12-15T16:49:35;33.42;;;13.40;;
52368;SDS011;38298;50.346;3.526;2022-12-15T16:52:01;28.88;;;14.05;;